sensor_id;sensor_type;location;lat;lon;timestamp;P1;durP1;ratioP1;P2;durP2;ratioP2
60847;SDS011;46681;47.696;9.140;2023-01-01T00:00:24;23.93;;;20.73;;
60847;SDS011;46681;47.696;9.140;2023-01-01T00:02:56;21.50;;;18.13;;
60847;SDS011;46681;47.696;9.140;2023-01-01T00:05:40;21.90;;;17.50;;
60847;SDS011;46681;47.696;9.140;2023-01-01T00:11:17;20.47;;;17.43;;
60847;SDS011;46681;47.696;9.140;2023-01-01T00:13:43;22.87;;;19.37;;
60847;SDS011;46681;47.696;9.140;2023-01-01T00:16:25;29.80;;;23.53;;
60847;SDS011;46681;47.696;9.140;2023-01-01T00:18:52;32.37;;;27.73;;
60847;SDS011;46681;47.696;9.140;2023-01-01T00:21:18;35.43;;;29.83;;
60847;SDS011;46681;47.696;9.140;2023-01-01T00:23:51;36.77;;;32.67;;
60847;SDS011;46681;47.696;9.140;2023-01-01T00:26:24;40.67;;;33.03;;
60847;SDS011;46681;47.696;9.140;2023-01-01T00:28:53;40.30;;;35.17;;
60847;SDS011;46681;47.696;9.140;2023-01-01T00:31:21;43.80;;;34.93;;
60847;SDS011;46681;47.696;9.140;2023-01-01T00:33:51;42.67;;;34.23;;
60847;SDS011;46681;47.696;9.140;2023-01-01T00:36:23;39.87;;;31.53;;
60847;SDS011;46681;47.696;9.140;2023-01-01T00:38:55;35.07;;;30.97;;
60847;SDS011;46681;47.696;9.140;2023-01-01T00:41:21;35.70;;;29.07;;
60847;SDS011;46681;47.696;9.140;2023-01-01T00:43:48;33.57;;;28.73;;
60847;SDS011;46681;47.696;9.140;2023-01-01T00:46:24;31.10;;;26.00;;
60847;SDS011;46681;47.696;9.140;2023-01-01T00:48:52;29.07;;;25.70;;
60847;SDS011;46681;47.696;9.140;2023-01-01T00:51:25;30.83;;;23.80;;
60847;SDS011;46681;47.696;9.140;2023-01-01T00:53:51;28.60;;;24.27;;
60847;SDS011;46681;47.696;9.140;2023-01-01T00:56:23;27.67;;;22.53;;
60847;SDS011;46681;47.696;9.140;2023-01-01T00:58:54;24.67;;;21.60;;
60847;SDS011;46681;47.696;9.140;2023-01-01T01:01:23;22.97;;;19.97;;
60847;SDS011;46681;47.696;9.140;2023-01-01T01:03:50;22.93;;;20.17;;
60847;SDS011;46681;47.696;9.140;2023-01-01T01:06:20;25.37;;;21.23;;
60847;SDS011;46681;47.696;9.140;2023-01-01T01:08:45;29.97;;;23.57;;
60847;SDS011;46681;47.696;9.140;2023-01-01T01:11:24;28.83;;;24.93;;
60847;SDS011;46681;47.696;9.140;2023-01-01T01:13:51;36.70;;;31.83;;
60847;SDS011;46681;47.696;9.140;2023-01-01T01:16:23;41.27;;;35.57;;
60847;SDS011;46681;47.696;9.140;2023-01-01T01:18:55;43.73;;;37.70;;
60847;SDS011;46681;47.696;9.140;2023-01-01T01:21:29;49.97;;;42.20;;
60847;SDS011;46681;47.696;9.140;2023-01-01T01:23:59;48.63;;;40.57;;
60847;SDS011;46681;47.696;9.140;2023-01-01T01:26:37;50.70;;;41.70;;
60847;SDS011;46681;47.696;9.140;2023-01-01T01:29:16;50.27;;;42.83;;
60847;SDS011;46681;47.696;9.140;2023-01-01T01:31:47;50.03;;;42.40;;
60847;SDS011;46681;47.696;9.140;2023-01-01T01:34:18;52.30;;;43.03;;
60847;SDS011;46681;47.696;9.140;2023-01-01T01:36:51;51.10;;;41.67;;
60847;SDS011;46681;47.696;9.140;2023-01-01T01:39:18;55.23;;;44.87;;
60847;SDS011;46681;47.696;9.140;2023-01-01T01:41:45;54.50;;;45.43;;
60847;SDS011;46681;47.696;9.140;2023-01-01T01:47:15;60.70;;;49.87;;
60847;SDS011;46681;47.696;9.140;2023-01-01T01:53:35;57.37;;;47.93;;
60847;SDS011;46681;47.696;9.140;2023-01-01T01:56:07;62.20;;;46.33;;
60847;SDS011;46681;47.696;9.140;2023-01-01T01:58:52;57.10;;;45.53;;
60847;SDS011;46681;47.696;9.140;2023-01-01T02:01:19;53.47;;;44.07;;
60847;SDS011;46681;47.696;9.140;2023-01-01T02:03:57;50.20;;;41.93;;
60847;SDS011;46681;47.696;9.140;2023-01-01T02:06:29;51.10;;;40.97;;
60847;SDS011;46681;47.696;9.140;2023-01-01T02:09:24;46.37;;;40.40;;
60847;SDS011;46681;47.696;9.140;2023-01-01T02:11:50;44.20;;;38.80;;
60847;SDS011;46681;47.696;9.140;2023-01-01T02:14:20;46.90;;;38.60;;
60847;SDS011;46681;47.696;9.140;2023-01-01T02:16:54;44.80;;;36.93;;
60847;SDS011;46681;47.696;9.140;2023-01-01T02:22:26;44.00;;;35.87;;
60847;SDS011;46681;47.696;9.140;2023-01-01T02:28:40;39.77;;;32.77;;
60847;SDS011;46681;47.696;9.140;2023-01-01T02:31:12;38.00;;;31.97;;
60847;SDS011;46681;47.696;9.140;2023-01-01T02:34:17;36.03;;;29.80;;
60847;SDS011;46681;47.696;9.140;2023-01-01T02:36:55;37.53;;;29.80;;
60847;SDS011;46681;47.696;9.140;2023-01-01T02:39:30;34.13;;;28.63;;
60847;SDS011;46681;47.696;9.140;2023-01-01T02:42:02;30.40;;;26.80;;
60847;SDS011;46681;47.696;9.140;2023-01-01T02:44:31;36.13;;;28.20;;
60847;SDS011;46681;47.696;9.140;2023-01-01T02:47:10;33.17;;;25.73;;
60847;SDS011;46681;47.696;9.140;2023-01-01T02:49:45;30.17;;;25.40;;
60847;SDS011;46681;47.696;9.140;2023-01-01T02:55:27;29.33;;;26.23;;
60847;SDS011;46681;47.696;9.140;2023-01-01T02:58:25;30.47;;;24.07;;
60847;SDS011;46681;47.696;9.140;2023-01-01T03:01:16;28.47;;;22.70;;
60847;SDS011;46681;47.696;9.140;2023-01-01T03:04:02;30.00;;;23.23;;
60847;SDS011;46681;47.696;9.140;2023-01-01T03:09:47;23.70;;;21.03;;
60847;SDS011;46681;47.696;9.140;2023-01-01T03:12:31;23.50;;;20.10;;
60847;SDS011;46681;47.696;9.140;2023-01-01T03:15:19;23.77;;;20.77;;
60847;SDS011;46681;47.696;9.140;2023-01-01T03:21:02;22.83;;;20.27;;
60847;SDS011;46681;47.696;9.140;2023-01-01T03:23:39;22.77;;;19.60;;
60847;SDS011;46681;47.696;9.140;2023-01-01T03:26:12;21.03;;;18.80;;
60847;SDS011;46681;47.696;9.140;2023-01-01T03:28:45;22.23;;;17.73;;
60847;SDS011;46681;47.696;9.140;2023-01-01T03:31:17;21.83;;;18.67;;
60847;SDS011;46681;47.696;9.140;2023-01-01T03:33:47;19.53;;;17.23;;
60847;SDS011;46681;47.696;9.140;2023-01-01T03:39:24;22.87;;;18.30;;
60847;SDS011;46681;47.696;9.140;2023-01-01T03:44:31;20.37;;;18.13;;
60847;SDS011;46681;47.696;9.140;2023-01-01T03:47:14;20.03;;;17.63;;
60847;SDS011;46681;47.696;9.140;2023-01-01T03:49:52;22.87;;;17.83;;
60847;SDS011;46681;47.696;9.140;2023-01-01T03:58:30;22.50;;;19.97;;
60847;SDS011;46681;47.696;9.140;2023-01-01T04:01:11;22.57;;;19.37;;
60847;SDS011;46681;47.696;9.140;2023-01-01T04:03:55;22.60;;;19.53;;
60847;SDS011;46681;47.696;9.140;2023-01-01T04:06:24;24.30;;;20.37;;
60847;SDS011;46681;47.696;9.140;2023-01-01T04:08:51;23.83;;;20.33;;
60847;SDS011;46681;47.696;9.140;2023-01-01T04:11:22;25.10;;;20.27;;
60847;SDS011;46681;47.696;9.140;2023-01-01T04:13:53;23.37;;;20.87;;
60847;SDS011;46681;47.696;9.140;2023-01-01T04:16:20;25.47;;;21.63;;
60847;SDS011;46681;47.696;9.140;2023-01-01T04:18:50;25.43;;;22.07;;
60847;SDS011;46681;47.696;9.140;2023-01-01T04:21:17;26.13;;;22.53;;
60847;SDS011;46681;47.696;9.140;2023-01-01T04:23:45;25.70;;;22.03;;
60847;SDS011;46681;47.696;9.140;2023-01-01T04:26:13;27.50;;;22.03;;
60847;SDS011;46681;47.696;9.140;2023-01-01T04:28:39;25.53;;;22.73;;
60847;SDS011;46681;47.696;9.140;2023-01-01T04:31:08;27.97;;;22.23;;
60847;SDS011;46681;47.696;9.140;2023-01-01T04:37:00;27.40;;;23.17;;
60847;SDS011;46681;47.696;9.140;2023-01-01T04:39:31;30.13;;;24.10;;
60847;SDS011;46681;47.696;9.140;2023-01-01T04:41:57;26.33;;;23.07;;
60847;SDS011;46681;47.696;9.140;2023-01-01T04:44:24;28.23;;;24.10;;
60847;SDS011;46681;47.696;9.140;2023-01-01T04:46:55;27.27;;;24.47;;
60847;SDS011;46681;47.696;9.140;2023-01-01T04:49:22;28.77;;;24.37;;
60847;SDS011;46681;47.696;9.140;2023-01-01T04:51:49;29.03;;;24.57;;
60847;SDS011;46681;47.696;9.140;2023-01-01T04:54:16;30.47;;;24.90;;
60847;SDS011;46681;47.696;9.140;2023-01-01T04:56:42;28.60;;;24.30;;
60847;SDS011;46681;47.696;9.140;2023-01-01T04:59:17;28.37;;;23.97;;
60847;SDS011;46681;47.696;9.140;2023-01-01T05:01:46;30.13;;;25.70;;
60847;SDS011;46681;47.696;9.140;2023-01-01T05:04:12;30.73;;;26.20;;
60847;SDS011;46681;47.696;9.140;2023-01-01T05:06:44;29.50;;;25.60;;
60847;SDS011;46681;47.696;9.140;2023-01-01T05:09:14;30.17;;;25.20;;
60847;SDS011;46681;47.696;9.140;2023-01-01T05:11:45;30.43;;;26.00;;
60847;SDS011;46681;47.696;9.140;2023-01-01T05:14:12;33.30;;;25.13;;
60847;SDS011;46681;47.696;9.140;2023-01-01T05:16:39;28.70;;;25.07;;
60847;SDS011;46681;47.696;9.140;2023-01-01T05:19:09;30.30;;;25.27;;
60847;SDS011;46681;47.696;9.140;2023-01-01T05:21:39;31.23;;;25.27;;
60847;SDS011;46681;47.696;9.140;2023-01-01T05:24:07;27.70;;;24.67;;
60847;SDS011;46681;47.696;9.140;2023-01-01T05:26:44;29.20;;;25.13;;
60847;SDS011;46681;47.696;9.140;2023-01-01T05:29:25;27.93;;;23.90;;
60847;SDS011;46681;47.696;9.140;2023-01-01T05:31:56;28.17;;;24.10;;
60847;SDS011;46681;47.696;9.140;2023-01-01T05:34:31;28.93;;;24.70;;
60847;SDS011;46681;47.696;9.140;2023-01-01T05:36:58;26.77;;;23.77;;
60847;SDS011;46681;47.696;9.140;2023-01-01T05:39:31;25.67;;;22.90;;
60847;SDS011;46681;47.696;9.140;2023-01-01T05:41:58;25.97;;;22.80;;
60847;SDS011;46681;47.696;9.140;2023-01-01T05:44:29;27.27;;;23.40;;
60847;SDS011;46681;47.696;9.140;2023-01-01T05:46:56;23.87;;;21.27;;
60847;SDS011;46681;47.696;9.140;2023-01-01T05:49:27;25.73;;;22.20;;
60847;SDS011;46681;47.696;9.140;2023-01-01T05:51:58;25.93;;;21.57;;
60847;SDS011;46681;47.696;9.140;2023-01-01T05:54:27;23.13;;;20.53;;
60847;SDS011;46681;47.696;9.140;2023-01-01T05:56:57;25.70;;;20.77;;
60847;SDS011;46681;47.696;9.140;2023-01-01T05:59:25;22.60;;;20.20;;
60847;SDS011;46681;47.696;9.140;2023-01-01T06:01:55;22.47;;;19.13;;
60847;SDS011;46681;47.696;9.140;2023-01-01T06:04:24;23.33;;;19.80;;
60847;SDS011;46681;47.696;9.140;2023-01-01T06:06:51;22.23;;;18.60;;
60847;SDS011;46681;47.696;9.140;2023-01-01T06:09:18;21.00;;;18.63;;
60847;SDS011;46681;47.696;9.140;2023-01-01T06:11:44;20.80;;;17.43;;
60847;SDS011;46681;47.696;9.140;2023-01-01T06:14:25;19.67;;;16.27;;
60847;SDS011;46681;47.696;9.140;2023-01-01T06:16:51;18.33;;;16.23;;
60847;SDS011;46681;47.696;9.140;2023-01-01T06:19:18;18.70;;;15.97;;
60847;SDS011;46681;47.696;9.140;2023-01-01T06:21:44;17.90;;;16.00;;
60847;SDS011;46681;47.696;9.140;2023-01-01T06:24:15;17.30;;;15.50;;
60847;SDS011;46681;47.696;9.140;2023-01-01T06:26:49;18.10;;;15.60;;
60847;SDS011;46681;47.696;9.140;2023-01-01T06:29:18;17.33;;;15.57;;
60847;SDS011;46681;47.696;9.140;2023-01-01T06:31:50;16.37;;;13.87;;
60847;SDS011;46681;47.696;9.140;2023-01-01T06:34:17;16.37;;;14.60;;
60847;SDS011;46681;47.696;9.140;2023-01-01T06:36:43;17.13;;;14.17;;
60847;SDS011;46681;47.696;9.140;2023-01-01T06:39:10;15.40;;;13.80;;
60847;SDS011;46681;47.696;9.140;2023-01-01T06:41:38;14.50;;;12.97;;
60847;SDS011;46681;47.696;9.140;2023-01-01T06:44:06;15.93;;;14.23;;
60847;SDS011;46681;47.696;9.140;2023-01-01T06:46:36;15.90;;;13.23;;
60847;SDS011;46681;47.696;9.140;2023-01-01T06:49:09;15.10;;;12.87;;
60847;SDS011;46681;47.696;9.140;2023-01-01T06:51:37;13.77;;;12.30;;
60847;SDS011;46681;47.696;9.140;2023-01-01T06:54:06;12.43;;;11.17;;
60847;SDS011;46681;47.696;9.140;2023-01-01T06:56:35;12.90;;;11.37;;
60847;SDS011;46681;47.696;9.140;2023-01-01T06:59:01;12.43;;;11.13;;
60847;SDS011;46681;47.696;9.140;2023-01-01T07:01:28;12.80;;;11.50;;
60847;SDS011;46681;47.696;9.140;2023-01-01T07:03:56;12.27;;;10.50;;
60847;SDS011;46681;47.696;9.140;2023-01-01T07:06:33;11.17;;;10.07;;
60847;SDS011;46681;47.696;9.140;2023-01-01T07:09:06;11.27;;;9.43;;
60847;SDS011;46681;47.696;9.140;2023-01-01T07:11:52;11.07;;;9.87;;
60847;SDS011;46681;47.696;9.140;2023-01-01T07:14:20;10.77;;;8.90;;
60847;SDS011;46681;47.696;9.140;2023-01-01T07:16:50;9.33;;;8.33;;
60847;SDS011;46681;47.696;9.140;2023-01-01T07:19:17;9.63;;;8.67;;
60847;SDS011;46681;47.696;9.140;2023-01-01T07:21:55;10.60;;;8.67;;
60847;SDS011;46681;47.696;9.140;2023-01-01T07:24:27;8.50;;;7.70;;
60847;SDS011;46681;47.696;9.140;2023-01-01T07:26:57;9.17;;;7.97;;
60847;SDS011;46681;47.696;9.140;2023-01-01T07:29:23;11.60;;;7.53;;
60847;SDS011;46681;47.696;9.140;2023-01-01T07:31:52;7.53;;;6.73;;
60847;SDS011;46681;47.696;9.140;2023-01-01T07:34:21;8.13;;;7.30;;
60847;SDS011;46681;47.696;9.140;2023-01-01T07:36:48;7.13;;;6.40;;
60847;SDS011;46681;47.696;9.140;2023-01-01T07:39:19;8.07;;;6.77;;
60847;SDS011;46681;47.696;9.140;2023-01-01T07:41:49;6.93;;;6.23;;
60847;SDS011;46681;47.696;9.140;2023-01-01T07:44:16;7.27;;;6.53;;
60847;SDS011;46681;47.696;9.140;2023-01-01T07:46:48;6.20;;;5.60;;
60847;SDS011;46681;47.696;9.140;2023-01-01T07:49:18;5.93;;;5.40;;
60847;SDS011;46681;47.696;9.140;2023-01-01T07:51:45;6.90;;;6.03;;
60847;SDS011;46681;47.696;9.140;2023-01-01T07:54:12;8.47;;;5.50;;
60847;SDS011;46681;47.696;9.140;2023-01-01T07:56:37;7.23;;;5.53;;
60847;SDS011;46681;47.696;9.140;2023-01-01T07:59:06;6.57;;;5.97;;
60847;SDS011;46681;47.696;9.140;2023-01-01T08:01:35;8.20;;;5.10;;
60847;SDS011;46681;47.696;9.140;2023-01-01T08:04:03;5.60;;;5.10;;
60847;SDS011;46681;47.696;9.140;2023-01-01T08:06:30;5.83;;;5.17;;
60847;SDS011;46681;47.696;9.140;2023-01-01T08:09:02;5.47;;;4.87;;
60847;SDS011;46681;47.696;9.140;2023-01-01T08:11:28;5.07;;;4.57;;
60847;SDS011;46681;47.696;9.140;2023-01-01T08:14:00;5.57;;;4.50;;
60847;SDS011;46681;47.696;9.140;2023-01-01T08:16:27;4.80;;;4.37;;
60847;SDS011;46681;47.696;9.140;2023-01-01T08:19:00;4.67;;;4.27;;
60847;SDS011;46681;47.696;9.140;2023-01-01T08:21:32;4.80;;;4.37;;
60847;SDS011;46681;47.696;9.140;2023-01-01T08:26:43;4.60;;;3.90;;
60847;SDS011;46681;47.696;9.140;2023-01-01T08:29:19;4.17;;;3.77;;
60847;SDS011;46681;47.696;9.140;2023-01-01T08:31:50;4.33;;;3.93;;
60847;SDS011;46681;47.696;9.140;2023-01-01T08:34:17;4.03;;;3.63;;
60847;SDS011;46681;47.696;9.140;2023-01-01T08:36:44;3.60;;;3.30;;
60847;SDS011;46681;47.696;9.140;2023-01-01T08:39:13;4.67;;;3.47;;
60847;SDS011;46681;47.696;9.140;2023-01-01T08:41:46;4.70;;;4.30;;
60847;SDS011;46681;47.696;9.140;2023-01-01T08:44:34;5.67;;;3.20;;
60847;SDS011;46681;47.696;9.140;2023-01-01T08:47:01;3.33;;;3.03;;
60847;SDS011;46681;47.696;9.140;2023-01-01T08:49:29;3.70;;;3.40;;
60847;SDS011;46681;47.696;9.140;2023-01-01T08:52:05;3.90;;;3.07;;
60847;SDS011;46681;47.696;9.140;2023-01-01T08:54:40;4.40;;;3.13;;
60847;SDS011;46681;47.696;9.140;2023-01-01T08:57:20;4.03;;;3.30;;
60847;SDS011;46681;47.696;9.140;2023-01-01T08:59:55;2.97;;;2.73;;
60847;SDS011;46681;47.696;9.140;2023-01-01T09:02:33;3.20;;;2.90;;
60847;SDS011;46681;47.696;9.140;2023-01-01T09:05:00;3.53;;;3.23;;
60847;SDS011;46681;47.696;9.140;2023-01-01T09:07:27;3.83;;;3.00;;
60847;SDS011;46681;47.696;9.140;2023-01-01T09:09:54;4.60;;;3.20;;
60847;SDS011;46681;47.696;9.140;2023-01-01T09:12:25;4.03;;;3.60;;
60847;SDS011;46681;47.696;9.140;2023-01-01T09:14:54;5.03;;;3.90;;
60847;SDS011;46681;47.696;9.140;2023-01-01T09:17:21;3.87;;;3.57;;
60847;SDS011;46681;47.696;9.140;2023-01-01T09:19:48;3.50;;;3.20;;
60847;SDS011;46681;47.696;9.140;2023-01-01T09:22:19;3.73;;;3.43;;
60847;SDS011;46681;47.696;9.140;2023-01-01T09:24:59;3.67;;;2.97;;
60847;SDS011;46681;47.696;9.140;2023-01-01T09:27:25;3.57;;;3.27;;
60847;SDS011;46681;47.696;9.140;2023-01-01T09:29:56;3.37;;;2.83;;
60847;SDS011;46681;47.696;9.140;2023-01-01T09:32:25;3.00;;;2.80;;
60847;SDS011;46681;47.696;9.140;2023-01-01T09:34:55;3.00;;;2.80;;
60847;SDS011;46681;47.696;9.140;2023-01-01T09:37:28;4.17;;;3.10;;
60847;SDS011;46681;47.696;9.140;2023-01-01T09:41:15;2.90;;;2.70;;
60847;SDS011;46681;47.696;9.140;2023-01-01T09:46:48;3.10;;;2.80;;
60847;SDS011;46681;47.696;9.140;2023-01-01T09:49:40;4.37;;;2.53;;
60847;SDS011;46681;47.696;9.140;2023-01-01T09:52:56;2.77;;;2.53;;
60847;SDS011;46681;47.696;9.140;2023-01-01T09:58:22;4.03;;;2.80;;
60847;SDS011;46681;47.696;9.140;2023-01-01T10:00:53;2.87;;;2.67;;
60847;SDS011;46681;47.696;9.140;2023-01-01T10:06:38;2.63;;;2.30;;
60847;SDS011;46681;47.696;9.140;2023-01-01T10:16:10;3.50;;;2.63;;
60847;SDS011;46681;47.696;9.140;2023-01-01T10:18:43;4.83;;;2.93;;
60847;SDS011;46681;47.696;9.140;2023-01-01T10:21:26;3.63;;;2.50;;
60847;SDS011;46681;47.696;9.140;2023-01-01T10:27:01;2.70;;;2.50;;
60847;SDS011;46681;47.696;9.140;2023-01-01T10:32:37;2.60;;;2.40;;
60847;SDS011;46681;47.696;9.140;2023-01-01T10:35:34;2.53;;;2.30;;
60847;SDS011;46681;47.696;9.140;2023-01-01T10:38:30;3.67;;;2.17;;
60847;SDS011;46681;47.696;9.140;2023-01-01T10:41:12;2.17;;;2.07;;
60847;SDS011;46681;47.696;9.140;2023-01-01T10:43:42;2.73;;;2.53;;
60847;SDS011;46681;47.696;9.140;2023-01-01T10:46:15;3.63;;;2.20;;
60847;SDS011;46681;47.696;9.140;2023-01-01T10:49:03;3.57;;;2.57;;
60847;SDS011;46681;47.696;9.140;2023-01-01T10:51:40;2.33;;;2.13;;
60847;SDS011;46681;47.696;9.140;2023-01-01T11:00:19;6.30;;;1.90;;
60847;SDS011;46681;47.696;9.140;2023-01-01T11:06:11;3.50;;;2.00;;
60847;SDS011;46681;47.696;9.140;2023-01-01T11:08:47;2.83;;;2.20;;
60847;SDS011;46681;47.696;9.140;2023-01-01T11:11:36;2.20;;;2.00;;
60847;SDS011;46681;47.696;9.140;2023-01-01T11:17:37;3.03;;;2.20;;
60847;SDS011;46681;47.696;9.140;2023-01-01T11:20:30;2.67;;;2.47;;
60847;SDS011;46681;47.696;9.140;2023-01-01T11:23:28;1.83;;;1.63;;
60847;SDS011;46681;47.696;9.140;2023-01-01T11:32:06;1.80;;;1.70;;
60847;SDS011;46681;47.696;9.140;2023-01-01T11:34:43;3.10;;;1.70;;
60847;SDS011;46681;47.696;9.140;2023-01-01T11:39:55;2.70;;;1.70;;
60847;SDS011;46681;47.696;9.140;2023-01-01T11:42:29;1.60;;;1.50;;
60847;SDS011;46681;47.696;9.140;2023-01-01T11:45:21;1.60;;;1.50;;
60847;SDS011;46681;47.696;9.140;2023-01-01T11:48:12;3.00;;;1.80;;
60847;SDS011;46681;47.696;9.140;2023-01-01T11:50:52;1.60;;;1.50;;
60847;SDS011;46681;47.696;9.140;2023-01-01T11:53:34;3.33;;;2.00;;
60847;SDS011;46681;47.696;9.140;2023-01-01T11:56:19;1.73;;;1.60;;
60847;SDS011;46681;47.696;9.140;2023-01-01T12:01:53;3.03;;;1.70;;
60847;SDS011;46681;47.696;9.140;2023-01-01T12:07:31;1.53;;;1.43;;
60847;SDS011;46681;47.696;9.140;2023-01-01T12:13:21;1.60;;;1.50;;
60847;SDS011;46681;47.696;9.140;2023-01-01T12:16:12;2.50;;;1.70;;
60847;SDS011;46681;47.696;9.140;2023-01-01T12:19:46;1.50;;;1.40;;
60847;SDS011;46681;47.696;9.140;2023-01-01T12:22:17;2.53;;;1.63;;
60847;SDS011;46681;47.696;9.140;2023-01-01T12:25:01;3.60;;;1.67;;
60847;SDS011;46681;47.696;9.140;2023-01-01T12:30:54;1.30;;;1.20;;
60847;SDS011;46681;47.696;9.140;2023-01-01T13:00:20;1.77;;;1.67;;
60847;SDS011;46681;47.696;9.140;2023-01-01T13:03:03;1.93;;;1.83;;
60847;SDS011;46681;47.696;9.140;2023-01-01T13:05:49;1.97;;;1.80;;
60847;SDS011;46681;47.696;9.140;2023-01-01T13:08:31;2.23;;;2.03;;
60847;SDS011;46681;47.696;9.140;2023-01-01T13:11:09;2.03;;;1.90;;
60847;SDS011;46681;47.696;9.140;2023-01-01T13:13:41;2.07;;;1.90;;
60847;SDS011;46681;47.696;9.140;2023-01-01T13:16:09;2.00;;;1.80;;
60847;SDS011;46681;47.696;9.140;2023-01-01T13:18:58;2.40;;;2.20;;
60847;SDS011;46681;47.696;9.140;2023-01-01T13:21:29;2.17;;;2.00;;
60847;SDS011;46681;47.696;9.140;2023-01-01T13:24:03;2.23;;;2.10;;
60847;SDS011;46681;47.696;9.140;2023-01-01T13:26:53;2.43;;;1.93;;
60847;SDS011;46681;47.696;9.140;2023-01-01T13:29:24;3.13;;;2.20;;
60847;SDS011;46681;47.696;9.140;2023-01-01T13:32:30;2.30;;;2.10;;
60847;SDS011;46681;47.696;9.140;2023-01-01T13:35:33;1.90;;;1.80;;
60847;SDS011;46681;47.696;9.140;2023-01-01T13:38:46;2.80;;;2.17;;
60847;SDS011;46681;47.696;9.140;2023-01-01T13:44:15;3.00;;;2.40;;
60847;SDS011;46681;47.696;9.140;2023-01-01T13:50:10;3.23;;;2.07;;
60847;SDS011;46681;47.696;9.140;2023-01-01T14:05:03;3.57;;;2.20;;
60847;SDS011;46681;47.696;9.140;2023-01-01T14:07:56;2.63;;;2.43;;
60847;SDS011;46681;47.696;9.140;2023-01-01T14:10:29;3.87;;;2.20;;
60847;SDS011;46681;47.696;9.140;2023-01-01T14:16:09;2.90;;;2.30;;
60847;SDS011;46681;47.696;9.140;2023-01-01T14:18:42;2.43;;;2.33;;
60847;SDS011;46681;47.696;9.140;2023-01-01T14:21:37;4.93;;;2.60;;
60847;SDS011;46681;47.696;9.140;2023-01-01T14:24:33;2.83;;;2.63;;
60847;SDS011;46681;47.696;9.140;2023-01-01T14:27:17;2.70;;;2.50;;
60847;SDS011;46681;47.696;9.140;2023-01-01T14:30:01;2.80;;;2.57;;
60847;SDS011;46681;47.696;9.140;2023-01-01T14:39:30;4.20;;;2.90;;
60847;SDS011;46681;47.696;9.140;2023-01-01T14:44:48;3.23;;;2.57;;
60847;SDS011;46681;47.696;9.140;2023-01-01T14:47:34;3.33;;;3.00;;
60847;SDS011;46681;47.696;9.140;2023-01-01T14:50:32;3.13;;;2.60;;
60847;SDS011;46681;47.696;9.140;2023-01-01T14:53:07;3.43;;;3.13;;
60847;SDS011;46681;47.696;9.140;2023-01-01T14:55:51;2.57;;;2.37;;
60847;SDS011;46681;47.696;9.140;2023-01-01T14:58:34;2.87;;;2.63;;
60847;SDS011;46681;47.696;9.140;2023-01-01T15:01:16;3.07;;;2.77;;
60847;SDS011;46681;47.696;9.140;2023-01-01T15:03:57;2.90;;;2.70;;
60847;SDS011;46681;47.696;9.140;2023-01-01T15:10:01;5.20;;;3.20;;
60847;SDS011;46681;47.696;9.140;2023-01-01T15:12:36;3.63;;;2.90;;
60847;SDS011;46681;47.696;9.140;2023-01-01T15:15:01;3.20;;;2.90;;
60847;SDS011;46681;47.696;9.140;2023-01-01T15:18:01;3.17;;;2.87;;
60847;SDS011;46681;47.696;9.140;2023-01-01T15:20:41;3.47;;;3.17;;
60847;SDS011;46681;47.696;9.140;2023-01-01T15:23:27;3.37;;;3.10;;
60847;SDS011;46681;47.696;9.140;2023-01-01T15:26:09;3.07;;;2.87;;
60847;SDS011;46681;47.696;9.140;2023-01-01T15:28:54;3.30;;;2.70;;
60847;SDS011;46681;47.696;9.140;2023-01-01T15:31:41;3.63;;;2.80;;
60847;SDS011;46681;47.696;9.140;2023-01-01T15:34:40;4.77;;;2.97;;
60847;SDS011;46681;47.696;9.140;2023-01-01T15:37:29;3.67;;;3.27;;
60847;SDS011;46681;47.696;9.140;2023-01-01T15:40:31;3.27;;;2.97;;
60847;SDS011;46681;47.696;9.140;2023-01-01T15:46:51;2.93;;;2.73;;
60847;SDS011;46681;47.696;9.140;2023-01-01T15:49:33;2.63;;;2.43;;
60847;SDS011;46681;47.696;9.140;2023-01-01T15:52:45;2.90;;;2.70;;
60847;SDS011;46681;47.696;9.140;2023-01-01T15:56:04;3.97;;;3.00;;
60847;SDS011;46681;47.696;9.140;2023-01-01T16:07:24;3.40;;;3.10;;
60847;SDS011;46681;47.696;9.140;2023-01-01T16:09:57;3.97;;;3.23;;
60847;SDS011;46681;47.696;9.140;2023-01-01T16:15:15;3.83;;;2.73;;
60847;SDS011;46681;47.696;9.140;2023-01-01T16:18:03;3.10;;;2.90;;
60847;SDS011;46681;47.696;9.140;2023-01-01T16:20:37;4.57;;;3.40;;
60847;SDS011;46681;47.696;9.140;2023-01-01T16:23:30;3.63;;;3.07;;
60847;SDS011;46681;47.696;9.140;2023-01-01T16:26:02;3.20;;;2.97;;
60847;SDS011;46681;47.696;9.140;2023-01-01T16:28:38;3.57;;;3.00;;
60847;SDS011;46681;47.696;9.140;2023-01-01T16:31:20;3.53;;;3.23;;
60847;SDS011;46681;47.696;9.140;2023-01-01T16:34:10;3.10;;;2.60;;
60847;SDS011;46681;47.696;9.140;2023-01-01T16:36:46;3.07;;;2.50;;
60847;SDS011;46681;47.696;9.140;2023-01-01T16:39:15;3.83;;;3.27;;
60847;SDS011;46681;47.696;9.140;2023-01-01T16:41:51;3.10;;;2.80;;
60847;SDS011;46681;47.696;9.140;2023-01-01T16:44:19;4.43;;;3.00;;
60847;SDS011;46681;47.696;9.140;2023-01-01T16:46:51;2.73;;;2.53;;
60847;SDS011;46681;47.696;9.140;2023-01-01T16:49:27;3.17;;;2.97;;
60847;SDS011;46681;47.696;9.140;2023-01-01T16:52:11;3.80;;;2.90;;
60847;SDS011;46681;47.696;9.140;2023-01-01T16:54:47;3.97;;;2.90;;
60847;SDS011;46681;47.696;9.140;2023-01-01T16:57:23;3.60;;;2.90;;
60847;SDS011;46681;47.696;9.140;2023-01-01T16:59:50;5.50;;;2.73;;
60847;SDS011;46681;47.696;9.140;2023-01-01T17:02:29;8.20;;;2.97;;
60847;SDS011;46681;47.696;9.140;2023-01-01T17:05:15;9.70;;;3.10;;
60847;SDS011;46681;47.696;9.140;2023-01-01T17:07:58;4.07;;;2.83;;
60847;SDS011;46681;47.696;9.140;2023-01-01T17:10:28;3.00;;;2.80;;
60847;SDS011;46681;47.696;9.140;2023-01-01T17:13:01;3.67;;;3.00;;
60847;SDS011;46681;47.696;9.140;2023-01-01T17:18:14;3.87;;;2.57;;
60847;SDS011;46681;47.696;9.140;2023-01-01T17:20:53;3.03;;;2.73;;
60847;SDS011;46681;47.696;9.140;2023-01-01T17:23:26;2.80;;;2.60;;
60847;SDS011;46681;47.696;9.140;2023-01-01T17:26:21;4.20;;;2.90;;
60847;SDS011;46681;47.696;9.140;2023-01-01T17:29:00;3.07;;;2.80;;
60847;SDS011;46681;47.696;9.140;2023-01-01T17:31:35;4.43;;;2.53;;
60847;SDS011;46681;47.696;9.140;2023-01-01T17:34:06;3.07;;;2.73;;
60847;SDS011;46681;47.696;9.140;2023-01-01T17:36:38;2.63;;;2.43;;
60847;SDS011;46681;47.696;9.140;2023-01-01T17:39:09;3.87;;;3.10;;
60847;SDS011;46681;47.696;9.140;2023-01-01T17:41:41;2.70;;;2.50;;
60847;SDS011;46681;47.696;9.140;2023-01-01T17:44:11;3.07;;;2.13;;
60847;SDS011;46681;47.696;9.140;2023-01-01T17:46:46;2.67;;;2.47;;
60847;SDS011;46681;47.696;9.140;2023-01-01T17:49:25;4.20;;;2.67;;
60847;SDS011;46681;47.696;9.140;2023-01-01T17:51:54;2.73;;;2.33;;
60847;SDS011;46681;47.696;9.140;2023-01-01T17:54:29;3.10;;;2.80;;
60847;SDS011;46681;47.696;9.140;2023-01-01T17:56:56;4.63;;;2.43;;
60847;SDS011;46681;47.696;9.140;2023-01-01T17:59:25;2.73;;;2.50;;
60847;SDS011;46681;47.696;9.140;2023-01-01T18:01:58;2.93;;;2.63;;
60847;SDS011;46681;47.696;9.140;2023-01-01T18:04:27;2.80;;;2.60;;
60847;SDS011;46681;47.696;9.140;2023-01-01T18:07:01;2.97;;;2.53;;
60847;SDS011;46681;47.696;9.140;2023-01-01T18:10:01;2.63;;;2.43;;
60847;SDS011;46681;47.696;9.140;2023-01-01T18:12:34;4.93;;;2.60;;
60847;SDS011;46681;47.696;9.140;2023-01-01T18:15:07;3.60;;;2.80;;
60847;SDS011;46681;47.696;9.140;2023-01-01T18:17:36;3.20;;;2.90;;
60847;SDS011;46681;47.696;9.140;2023-01-01T18:20:08;4.33;;;2.90;;
60847;SDS011;46681;47.696;9.140;2023-01-01T18:22:50;2.47;;;2.20;;